sensor_id;sensor_type;location;lat;lon;timestamp;temperature;humidity
5956;DHT22;3004;48.080;11.600;2022-07-29T00:00:20;19.00;99.90
5956;DHT22;3004;48.080;11.600;2022-07-29T00:02:48;19.00;99.90
5956;DHT22;3004;48.080;11.600;2022-07-29T00:05:18;19.00;99.90
5956;DHT22;3004;48.080;11.600;2022-07-29T00:07:51;19.00;99.90
5956;DHT22;3004;48.080;11.600;2022-07-29T00:10:18;18.90;99.90
5956;DHT22;3004;48.080;11.600;2022-07-29T00:12:47;18.90;99.90
5956;DHT22;3004;48.080;11.600;2022-07-29T00:15:14;19.00;99.90
5956;DHT22;3004;48.080;11.600;2022-07-29T00:17:40;19.00;99.90
5956;DHT22;3004;48.080;11.600;2022-07-29T00:20:09;19.00;99.90
5956;DHT22;3004;48.080;11.600;2022-07-29T00:22:37;19.00;99.90
5956;DHT22;3004;48.080;11.600;2022-07-29T00:25:05;19.00;99.90
5956;DHT22;3004;48.080;11.600;2022-07-29T00:27:32;19.00;99.90
5956;DHT22;3004;48.080;11.600;2022-07-29T00:30:05;19.00;99.90
5956;DHT22;3004;48.080;11.600;2022-07-29T00:32:33;18.90;99.90
5956;DHT22;3004;48.080;11.600;2022-07-29T00:35:01;18.90;99.90
5956;DHT22;3004;48.080;11.600;2022-07-29T00:37:45;18.90;99.90
5956;DHT22;3004;48.080;11.600;2022-07-29T00:40:12;18.90;99.90
5956;DHT22;3004;48.080;11.600;2022-07-29T00:42:46;18.90;99.90
5956;DHT22;3004;48.080;11.600;2022-07-29T00:45:17;18.90;99.90
5956;DHT22;3004;48.080;11.600;2022-07-29T00:47:45;18.80;99.90
5956;DHT22;3004;48.080;11.600;2022-07-29T00:50:13;18.80;99.90
5956;DHT22;3004;48.080;11.600;2022-07-29T00:52:41;18.80;99.90
5956;DHT22;3004;48.080;11.600;2022-07-29T00:55:12;18.70;99.90
5956;DHT22;3004;48.080;11.600;2022-07-29T00:57:41;18.70;99.90
5956;DHT22;3004;48.080;11.600;2022-07-29T01:00:15;18.80;99.90
5956;DHT22;3004;48.080;11.600;2022-07-29T01:02:47;18.70;99.90
5956;DHT22;3004;48.080;11.600;2022-07-29T01:05:20;18.70;99.90
5956;DHT22;3004;48.080;11.600;2022-07-29T01:07:49;18.70;99.90
5956;DHT22;3004;48.080;11.600;2022-07-29T01:10:19;18.70;99.90
5956;DHT22;3004;48.080;11.600;2022-07-29T01:13:01;18.60;99.90
5956;DHT22;3004;48.080;11.600;2022-07-29T01:15:56;18.70;99.90
5956;DHT22;3004;48.080;11.600;2022-07-29T01:18:41;18.60;99.90
5956;DHT22;3004;48.080;11.600;2022-07-29T01:21:30;18.70;99.90
5956;DHT22;3004;48.080;11.600;2022-07-29T01:24:16;18.60;99.90
5956;DHT22;3004;48.080;11.600;2022-07-29T01:26:54;18.60;99.90
5956;DHT22;3004;48.080;11.600;2022-07-29T01:29:27;18.60;99.90
5956;DHT22;3004;48.080;11.600;2022-07-29T01:32:02;18.70;99.90
5956;DHT22;3004;48.080;11.600;2022-07-29T01:34:39;18.60;99.90
5956;DHT22;3004;48.080;11.600;2022-07-29T01:37:19;18.60;99.90
5956;DHT22;3004;48.080;11.600;2022-07-29T01:39:49;18.60;99.90
5956;DHT22;3004;48.080;11.600;2022-07-29T01:42:26;18.60;99.90
5956;DHT22;3004;48.080;11.600;2022-07-29T01:44:59;18.60;99.90
5956;DHT22;3004;48.080;11.600;2022-07-29T01:47:32;18.50;99.90
5956;DHT22;3004;48.080;11.600;2022-07-29T01:50:05;18.60;99.90
5956;DHT22;3004;48.080;11.600;2022-07-29T01:52:49;18.60;99.90
5956;DHT22;3004;48.080;11.600;2022-07-29T01:55:20;18.50;99.90
5956;DHT22;3004;48.080;11.600;2022-07-29T01:57:49;18.40;99.90
5956;DHT22;3004;48.080;11.600;2022-07-29T02:00:18;18.50;99.90
5956;DHT22;3004;48.080;11.600;2022-07-29T02:02:47;18.50;99.90
5956;DHT22;3004;48.080;11.600;2022-07-29T02:05:18;18.40;99.90
5956;DHT22;3004;48.080;11.600;2022-07-29T02:07:48;18.40;99.90
5956;DHT22;3004;48.080;11.600;2022-07-29T02:10:22;18.40;99.90
5956;DHT22;3004;48.080;11.600;2022-07-29T02:12:55;18.50;99.90
5956;DHT22;3004;48.080;11.600;2022-07-29T02:15:28;18.50;99.90
5956;DHT22;3004;48.080;11.600;2022-07-29T02:18:01;18.40;99.90
5956;DHT22;3004;48.080;11.600;2022-07-29T02:20:28;18.30;99.90
5956;DHT22;3004;48.080;11.600;2022-07-29T02:22:59;18.30;99.90
5956;DHT22;3004;48.080;11.600;2022-07-29T02:25:28;18.20;99.90
5956;DHT22;3004;48.080;11.600;2022-07-29T02:27:55;18.20;99.90
5956;DHT22;3004;48.080;11.600;2022-07-29T02:30:26;18.20;99.90
5956;DHT22;3004;48.080;11.600;2022-07-29T02:32:55;18.10;99.90
5956;DHT22;3004;48.080;11.600;2022-07-29T02:35:23;18.10;99.90
5956;DHT22;3004;48.080;11.600;2022-07-29T02:37:51;18.10;99.90
5956;DHT22;3004;48.080;11.600;2022-07-29T02:40:34;18.00;99.90
5956;DHT22;3004;48.080;11.600;2022-07-29T02:43:02;18.00;99.90
5956;DHT22;3004;48.080;11.600;2022-07-29T02:45:34;18.00;99.90
5956;DHT22;3004;48.080;11.600;2022-07-29T02:48:06;18.00;99.90
5956;DHT22;3004;48.080;11.600;2022-07-29T02:50:40;18.00;99.90
5956;DHT22;3004;48.080;11.600;2022-07-29T02:53:14;18.00;99.90
5956;DHT22;3004;48.080;11.600;2022-07-29T02:55:46;18.00;99.90
5956;DHT22;3004;48.080;11.600;2022-07-29T02:58:21;17.90;99.90
5956;DHT22;3004;48.080;11.600;2022-07-29T03:00:57;17.80;99.90
5956;DHT22;3004;48.080;11.600;2022-07-29T03:03:28;17.80;99.90
5956;DHT22;3004;48.080;11.600;2022-07-29T03:05:56;17.80;99.90
5956;DHT22;3004;48.080;11.600;2022-07-29T03:08:24;17.70;99.90
5956;DHT22;3004;48.080;11.600;2022-07-29T03:10:52;17.60;99.90
5956;DHT22;3004;48.080;11.600;2022-07-29T03:13:22;17.40;99.90
5956;DHT22;3004;48.080;11.600;2022-07-29T03:15:50;17.20;99.90
5956;DHT22;3004;48.080;11.600;2022-07-29T03:18:20;17.20;99.90
5956;DHT22;3004;48.080;11.600;2022-07-29T03:20:48;17.10;99.90
5956;DHT22;3004;48.080;11.600;2022-07-29T03:23:18;17.00;99.90
5956;DHT22;3004;48.080;11.600;2022-07-29T03:25:47;16.90;99.90
5956;DHT22;3004;48.080;11.600;2022-07-29T03:28:16;16.80;99.90
5956;DHT22;3004;48.080;11.600;2022-07-29T03:30:46;16.70;99.90
5956;DHT22;3004;48.080;11.600;2022-07-29T03:33:13;16.70;99.90
5956;DHT22;3004;48.080;11.600;2022-07-29T03:35:41;16.70;99.90
5956;DHT22;3004;48.080;11.600;2022-07-29T03:38:08;16.50;99.90
5956;DHT22;3004;48.080;11.600;2022-07-29T03:40:44;16.40;99.90
5956;DHT22;3004;48.080;11.600;2022-07-29T03:43:16;16.30;99.90
5956;DHT22;3004;48.080;11.600;2022-07-29T03:45:47;16.20;99.90
5956;DHT22;3004;48.080;11.600;2022-07-29T03:48:19;16.10;99.90
5956;DHT22;3004;48.080;11.600;2022-07-29T03:50:52;16.10;99.90
5956;DHT22;3004;48.080;11.600;2022-07-29T03:53:19;16.10;99.90
5956;DHT22;3004;48.080;11.600;2022-07-29T03:55:50;15.90;99.90
5956;DHT22;3004;48.080;11.600;2022-07-29T03:58:19;15.90;99.90
5956;DHT22;3004;48.080;11.600;2022-07-29T04:00:48;15.90;99.90
5956;DHT22;3004;48.080;11.600;2022-07-29T04:03:15;15.90;99.90
5956;DHT22;3004;48.080;11.600;2022-07-29T04:05:43;15.80;99.90
5956;DHT22;3004;48.080;11.600;2022-07-29T04:08:11;15.90;99.90
5956;DHT22;3004;48.080;11.600;2022-07-29T04:10:38;15.70;99.90
5956;DHT22;3004;48.080;11.600;2022-07-29T04:13:06;15.70;99.90
5956;DHT22;3004;48.080;11.600;2022-07-29T04:15:33;15.60;99.90
5956;DHT22;3004;48.080;11.600;2022-07-29T04:18:00;15.60;99.90
5956;DHT22;3004;48.080;11.600;2022-07-29T04:20:27;15.60;99.90
5956;DHT22;3004;48.080;11.600;2022-07-29T04:22:54;15.60;99.90
5956;DHT22;3004;48.080;11.600;2022-07-29T04:25:24;15.70;99.90
5956;DHT22;3004;48.080;11.600;2022-07-29T04:27:51;15.60;99.90
5956;DHT22;3004;48.080;11.600;2022-07-29T04:30:27;15.60;99.90
5956;DHT22;3004;48.080;11.600;2022-07-29T04:33:10;15.80;99.90
5956;DHT22;3004;48.080;11.600;2022-07-29T04:35:44;15.80;99.90
5956;DHT22;3004;48.080;11.600;2022-07-29T04:38:19;15.90;99.90
5956;DHT22;3004;48.080;11.600;2022-07-29T04:40:47;16.00;99.90
5956;DHT22;3004;48.080;11.600;2022-07-29T04:43:41;16.00;99.90
5956;DHT22;3004;48.080;11.600;2022-07-29T04:46:26;16.10;99.90
5956;DHT22;3004;48.080;11.600;2022-07-29T04:48:53;16.30;99.90
5956;DHT22;3004;48.080;11.600;2022-07-29T04:51:20;16.50;99.90
5956;DHT22;3004;48.080;11.600;2022-07-29T04:53:55;16.60;99.90
5956;DHT22;3004;48.080;11.600;2022-07-29T04:56:24;16.80;99.90
5956;DHT22;3004;48.080;11.600;2022-07-29T04:59:03;16.90;99.90
5956;DHT22;3004;48.080;11.600;2022-07-29T05:01:30;17.00;99.90
5956;DHT22;3004;48.080;11.600;2022-07-29T05:04:05;17.20;99.90
5956;DHT22;3004;48.080;11.600;2022-07-29T05:06:36;17.30;99.90
5956;DHT22;3004;48.080;11.600;2022-07-29T05:09:03;17.40;99.90
5956;DHT22;3004;48.080;11.600;2022-07-29T05:11:32;17.50;99.90
5956;DHT22;3004;48.080;11.600;2022-07-29T05:13:59;17.60;99.90
5956;DHT22;3004;48.080;11.600;2022-07-29T05:16:29;17.70;99.90
5956;DHT22;3004;48.080;11.600;2022-07-29T05:18:56;17.70;99.90
5956;DHT22;3004;48.080;11.600;2022-07-29T05:21:23;17.80;99.90
5956;DHT22;3004;48.080;11.600;2022-07-29T05:23:52;17.80;99.90
5956;DHT22;3004;48.080;11.600;2022-07-29T05:26:20;17.80;99.90
5956;DHT22;3004;48.080;11.600;2022-07-29T05:28:51;17.80;99.90
5956;DHT22;3004;48.080;11.600;2022-07-29T05:31:19;17.80;99.90
5956;DHT22;3004;48.080;11.600;2022-07-29T05:33:46;17.80;99.90
5956;DHT22;3004;48.080;11.600;2022-07-29T05:36:13;17.80;99.90
5956;DHT22;3004;48.080;11.600;2022-07-29T05:38:40;17.80;99.90
5956;DHT22;3004;48.080;11.600;2022-07-29T05:41:07;17.90;99.90
5956;DHT22;3004;48.080;11.600;2022-07-29T05:43:34;17.90;99.90
5956;DHT22;3004;48.080;11.600;2022-07-29T05:46:03;18.00;99.90
5956;DHT22;3004;48.080;11.600;2022-07-29T05:48:30;18.20;99.90
5956;DHT22;3004;48.080;11.600;2022-07-29T05:50:57;18.40;99.90
5956;DHT22;3004;48.080;11.600;2022-07-29T05:53:46;18.70;99.90
5956;DHT22;3004;48.080;11.600;2022-07-29T05:56:13;18.80;99.90
5956;DHT22;3004;48.080;11.600;2022-07-29T05:58:40;18.90;99.90
5956;DHT22;3004;48.080;11.600;2022-07-29T06:01:09;18.90;99.90
5956;DHT22;3004;48.080;11.600;2022-07-29T06:03:37;19.00;99.90
5956;DHT22;3004;48.080;11.600;2022-07-29T06:06:09;19.10;99.90
5956;DHT22;3004;48.080;11.600;2022-07-29T06:08:38;19.20;99.90
5956;DHT22;3004;48.080;11.600;2022-07-29T06:11:05;19.20;99.90
5956;DHT22;3004;48.080;11.600;2022-07-29T06:13:36;19.20;99.90
5956;DHT22;3004;48.080;11.600;2022-07-29T06:16:04;19.20;99.90
5956;DHT22;3004;48.080;11.600;2022-07-29T06:18:34;19.30;99.90
5956;DHT22;3004;48.080;11.600;2022-07-29T06:21:01;19.50;99.90
5956;DHT22;3004;48.080;11.600;2022-07-29T06:23:28;19.50;99.90
5956;DHT22;3004;48.080;11.600;2022-07-29T06:25:55;19.60;99.90
5956;DHT22;3004;48.080;11.600;2022-07-29T06:28:25;19.60;99.90
5956;DHT22;3004;48.080;11.600;2022-07-29T06:30:52;19.70;99.90
5956;DHT22;3004;48.080;11.600;2022-07-29T06:33:19;19.70;99.90
5956;DHT22;3004;48.080;11.600;2022-07-29T06:35:48;19.70;99.90
5956;DHT22;3004;48.080;11.600;2022-07-29T06:38:15;20.00;99.90
5956;DHT22;3004;48.080;11.600;2022-07-29T06:40:42;20.10;99.90
5956;DHT22;3004;48.080;11.600;2022-07-29T06:43:29;20.20;99.90
5956;DHT22;3004;48.080;11.600;2022-07-29T06:45:58;20.30;99.90
5956;DHT22;3004;48.080;11.600;2022-07-29T06:48:30;20.40;99.90
5956;DHT22;3004;48.080;11.600;2022-07-29T06:50:59;20.40;99.90
5956;DHT22;3004;48.080;11.600;2022-07-29T06:53:27;20.40;99.90
5956;DHT22;3004;48.080;11.600;2022-07-29T06:55:55;20.50;99.90
5956;DHT22;3004;48.080;11.600;2022-07-29T06:58:23;20.50;99.90
5956;DHT22;3004;48.080;11.600;2022-07-29T07:00:51;20.70;99.90
5956;DHT22;3004;48.080;11.600;2022-07-29T07:03:20;20.70;99.90
5956;DHT22;3004;48.080;11.600;2022-07-29T07:05:48;20.70;99.90
5956;DHT22;3004;48.080;11.600;2022-07-29T07:08:20;20.70;99.90
5956;DHT22;3004;48.080;11.600;2022-07-29T07:10:48;20.80;99.90
5956;DHT22;3004;48.080;11.600;2022-07-29T07:13:16;20.90;99.90
5956;DHT22;3004;48.080;11.600;2022-07-29T07:15:48;21.00;99.90
5956;DHT22;3004;48.080;11.600;2022-07-29T07:18:16;21.20;99.90
5956;DHT22;3004;48.080;11.600;2022-07-29T07:20:44;21.30;99.90
5956;DHT22;3004;48.080;11.600;2022-07-29T07:23:11;21.40;99.90
5956;DHT22;3004;48.080;11.600;2022-07-29T07:25:39;21.40;99.90
5956;DHT22;3004;48.080;11.600;2022-07-29T07:28:07;21.60;99.90
5956;DHT22;3004;48.080;11.600;2022-07-29T07:30:39;21.60;99.90
5956;DHT22;3004;48.080;11.600;2022-07-29T07:33:06;21.70;99.90
5956;DHT22;3004;48.080;11.600;2022-07-29T07:35:33;21.70;99.90
5956;DHT22;3004;48.080;11.600;2022-07-29T07:38:23;21.70;99.90
5956;DHT22;3004;48.080;11.600;2022-07-29T07:41:10;21.80;99.90
5956;DHT22;3004;48.080;11.600;2022-07-29T07:43:40;21.90;99.90
5956;DHT22;3004;48.080;11.600;2022-07-29T07:46:09;21.90;99.90
5956;DHT22;3004;48.080;11.600;2022-07-29T07:48:39;22.00;99.90
5956;DHT22;3004;48.080;11.600;2022-07-29T07:51:06;22.00;99.90
5956;DHT22;3004;48.080;11.600;2022-07-29T07:53:34;22.10;99.90
5956;DHT22;3004;48.080;11.600;2022-07-29T07:56:01;22.20;99.90
5956;DHT22;3004;48.080;11.600;2022-07-29T07:58:32;22.20;99.90
5956;DHT22;3004;48.080;11.600;2022-07-29T08:01:00;22.30;99.90
5956;DHT22;3004;48.080;11.600;2022-07-29T08:03:27;22.30;99.90
5956;DHT22;3004;48.080;11.600;2022-07-29T08:05:57;22.40;99.90
5956;DHT22;3004;48.080;11.600;2022-07-29T08:08:25;22.30;99.90
5956;DHT22;3004;48.080;11.600;2022-07-29T08:10:55;22.30;99.90
5956;DHT22;3004;48.080;11.600;2022-07-29T08:13:48;22.40;99.90
5956;DHT22;3004;48.080;11.600;2022-07-29T08:16:15;22.50;99.90
5956;DHT22;3004;48.080;11.600;2022-07-29T08:18:45;22.50;99.90
5956;DHT22;3004;48.080;11.600;2022-07-29T08:21:23;22.70;99.90
5956;DHT22;3004;48.080;11.600;2022-07-29T08:23:52;22.90;99.90
5956;DHT22;3004;48.080;11.600;2022-07-29T08:26:46;23.00;99.90
5956;DHT22;3004;48.080;11.600;2022-07-29T08:29:14;23.00;99.90
5956;DHT22;3004;48.080;11.600;2022-07-29T08:31:41;22.90;99.90
5956;DHT22;3004;48.080;11.600;2022-07-29T08:34:09;23.00;99.90
5956;DHT22;3004;48.080;11.600;2022-07-29T08:36:36;23.00;99.90
5956;DHT22;3004;48.080;11.600;2022-07-29T08:39:04;23.20;99.90
5956;DHT22;3004;48.080;11.600;2022-07-29T08:41:34;23.20;99.90
5956;DHT22;3004;48.080;11.600;2022-07-29T08:44:04;23.30;99.90
5956;DHT22;3004;48.080;11.600;2022-07-29T08:46:33;23.40;99.90
5956;DHT22;3004;48.080;11.600;2022-07-29T08:49:07;23.50;99.90
5956;DHT22;3004;48.080;11.600;2022-07-29T08:51:57;23.60;99.90
5956;DHT22;3004;48.080;11.600;2022-07-29T08:54:25;23.90;99.90
5956;DHT22;3004;48.080;11.600;2022-07-29T08:56:52;24.00;99.90
5956;DHT22;3004;48.080;11.600;2022-07-29T08:59:22;23.80;99.90
5956;DHT22;3004;48.080;11.600;2022-07-29T09:01:54;23.40;99.90
5956;DHT22;3004;48.080;11.600;2022-07-29T09:04:30;23.30;99.90
5956;DHT22;3004;48.080;11.600;2022-07-29T09:07:00;23.30;99.90
5956;DHT22;3004;48.080;11.600;2022-07-29T09:09:31;23.40;99.90
5956;DHT22;3004;48.080;11.600;2022-07-29T09:12:01;23.50;99.90
5956;DHT22;3004;48.080;11.600;2022-07-29T09:14:31;23.30;99.90
5956;DHT22;3004;48.080;11.600;2022-07-29T09:17:00;23.20;99.90
5956;DHT22;3004;48.080;11.600;2022-07-29T09:19:29;23.40;99.90
5956;DHT22;3004;48.080;11.600;2022-07-29T09:22:01;23.60;99.90
5956;DHT22;3004;48.080;11.600;2022-07-29T09:24:39;23.80;99.90
5956;DHT22;3004;48.080;11.600;2022-07-29T09:27:20;24.00;99.90
5956;DHT22;3004;48.080;11.600;2022-07-29T09:29:58;24.00;99.90
5956;DHT22;3004;48.080;11.600;2022-07-29T09:32:54;24.00;99.90
5956;DHT22;3004;48.080;11.600;2022-07-29T09:35:25;24.20;99.90
5956;DHT22;3004;48.080;11.600;2022-07-29T09:37:53;24.20;99.90
5956;DHT22;3004;48.080;11.600;2022-07-29T09:40:25;24.30;99.90
5956;DHT22;3004;48.080;11.600;2022-07-29T09:42:53;24.40;99.90
5956;DHT22;3004;48.080;11.600;2022-07-29T09:45:41;24.40;99.90
5956;DHT22;3004;48.080;11.600;2022-07-29T09:51:39;24.30;99.90
5956;DHT22;3004;48.080;11.600;2022-07-29T09:54:27;23.90;99.90
5956;DHT22;3004;48.080;11.600;2022-07-29T09:57:37;23.70;99.90
5956;DHT22;3004;48.080;11.600;2022-07-29T09:59:59;23.70;99.90
5956;DHT22;3004;48.080;11.600;2022-07-29T10:02:31;23.90;99.90
5956;DHT22;3004;48.080;11.600;2022-07-29T10:05:18;23.90;99.90
5956;DHT22;3004;48.080;11.600;2022-07-29T10:08:06;23.80;99.90
5956;DHT22;3004;48.080;11.600;2022-07-29T10:10:37;23.80;99.90
5956;DHT22;3004;48.080;11.600;2022-07-29T10:13:12;23.80;99.90
5956;DHT22;3004;48.080;11.600;2022-07-29T10:15:42;23.70;99.90
5956;DHT22;3004;48.080;11.600;2022-07-29T10:18:35;23.60;99.90
5956;DHT22;3004;48.080;11.600;2022-07-29T10:21:16;23.50;99.90
5956;DHT22;3004;48.080;11.600;2022-07-29T10:23:51;23.60;99.90
5956;DHT22;3004;48.080;11.600;2022-07-29T10:26:22;23.50;99.90
5956;DHT22;3004;48.080;11.600;2022-07-29T10:28:49;23.50;99.90
5956;DHT22;3004;48.080;11.600;2022-07-29T10:31:26;23.50;99.90
5956;DHT22;3004;48.080;11.600;2022-07-29T10:34:10;23.50;99.90
5956;DHT22;3004;48.080;11.600;2022-07-29T10:36:49;23.30;99.90
5956;DHT22;3004;48.080;11.600;2022-07-29T10:39:35;23.20;99.90
5956;DHT22;3004;48.080;11.600;2022-07-29T10:42:17;23.20;99.90
5956;DHT22;3004;48.080;11.600;2022-07-29T10:44:46;23.20;99.90
5956;DHT22;3004;48.080;11.600;2022-07-29T10:47:24;23.10;99.90
5956;DHT22;3004;48.080;11.600;2022-07-29T10:49:56;23.10;99.90
5956;DHT22;3004;48.080;11.600;2022-07-29T10:52:52;23.10;99.90
5956;DHT22;3004;48.080;11.600;2022-07-29T10:55:38;23.50;99.90
5956;DHT22;3004;48.080;11.600;2022-07-29T10:58:14;23.90;99.90
5956;DHT22;3004;48.080;11.600;2022-07-29T11:00:52;24.10;99.90
5956;DHT22;3004;48.080;11.600;2022-07-29T11:03:43;24.30;99.90
5956;DHT22;3004;48.080;11.600;2022-07-29T11:06:11;24.30;99.90
5956;DHT22;3004;48.080;11.600;2022-07-29T11:08:41;24.60;99.90
5956;DHT22;3004;48.080;11.600;2022-07-29T11:11:37;24.50;99.90
5956;DHT22;3004;48.080;11.600;2022-07-29T11:14:06;24.20;99.90
5956;DHT22;3004;48.080;11.600;2022-07-29T11:16:58;24.30;99.90
5956;DHT22;3004;48.080;11.600;2022-07-29T11:19:31;24.60;99.90
5956;DHT22;3004;48.080;11.600;2022-07-29T11:21:59;24.70;99.90
5956;DHT22;3004;48.080;11.600;2022-07-29T11:24:33;24.70;99.90
5956;DHT22;3004;48.080;11.600;2022-07-29T11:27:22;24.70;99.90
5956;DHT22;3004;48.080;11.600;2022-07-29T11:30:09;24.60;99.90
5956;DHT22;3004;48.080;11.600;2022-07-29T11:32:40;24.80;99.90
5956;DHT22;3004;48.080;11.600;2022-07-29T11:35:21;25.20;99.90
5956;DHT22;3004;48.080;11.600;2022-07-29T11:38:24;25.20;99.90
5956;DHT22;3004;48.080;11.600;2022-07-29T11:41:21;25.10;99.90
5956;DHT22;3004;48.080;11.600;2022-07-29T11:43:51;25.20;99.90
5956;DHT22;3004;48.080;11.600;2022-07-29T11:46:49;25.20;99.90
5956;DHT22;3004;48.080;11.600;2022-07-29T11:49:20;25.40;99.60
5956;DHT22;3004;48.080;11.600;2022-07-29T11:51:53;25.60;98.70
5956;DHT22;3004;48.080;11.600;2022-07-29T11:54:24;25.50;99.30
5956;DHT22;3004;48.080;11.600;2022-07-29T11:56:52;25.40;99.90
5956;DHT22;3004;48.080;11.600;2022-07-29T11:59:24;25.30;99.90
5956;DHT22;3004;48.080;11.600;2022-07-29T12:01:55;25.20;99.90
5956;DHT22;3004;48.080;11.600;2022-07-29T12:04:25;25.20;99.90
5956;DHT22;3004;48.080;11.600;2022-07-29T12:06:53;25.00;99.90
5956;DHT22;3004;48.080;11.600;2022-07-29T12:09:24;25.10;99.90
5956;DHT22;3004;48.080;11.600;2022-07-29T12:11:56;25.20;99.00
5956;DHT22;3004;48.080;11.600;2022-07-29T12:14:28;25.20;99.90
5956;DHT22;3004;48.080;11.600;2022-07-29T12:16:56;25.20;99.50
5956;DHT22;3004;48.080;11.600;2022-07-29T12:19:23;25.30;99.90
5956;DHT22;3004;48.080;11.600;2022-07-29T12:21:53;25.30;99.90
5956;DHT22;3004;48.080;11.600;2022-07-29T12:24:21;25.30;99.90
5956;DHT22;3004;48.080;11.600;2022-07-29T12:26:53;25.30;99.90
5956;DHT22;3004;48.080;11.600;2022-07-29T12:29:22;25.30;99.90
5956;DHT22;3004;48.080;11.600;2022-07-29T12:31:53;25.40;99.70
5956;DHT22;3004;48.080;11.600;2022-07-29T12:34:26;25.30;99.40
5956;DHT22;3004;48.080;11.600;2022-07-29T12:36:53;25.20;98.70
5956;DHT22;3004;48.080;11.600;2022-07-29T12:39:21;25.20;98.80
5956;DHT22;3004;48.080;11.600;2022-07-29T12:41:48;25.10;99.60
5956;DHT22;3004;48.080;11.600;2022-07-29T12:44:15;25.20;99.90
5956;DHT22;3004;48.080;11.600;2022-07-29T12:46:42;25.20;99.20
5956;DHT22;3004;48.080;11.600;2022-07-29T12:49:21;25.20;99.30
5956;DHT22;3004;48.080;11.600;2022-07-29T12:51:48;25.30;99.30
5956;DHT22;3004;48.080;11.600;2022-07-29T12:54:15;25.40;99.90
5956;DHT22;3004;48.080;11.600;2022-07-29T12:56:45;25.40;99.90
5956;DHT22;3004;48.080;11.600;2022-07-29T12:59:17;25.30;99.20
5956;DHT22;3004;48.080;11.600;2022-07-29T13:01:45;25.20;99.70
5956;DHT22;3004;48.080;11.600;2022-07-29T13:04:25;25.10;99.80
5956;DHT22;3004;48.080;11.600;2022-07-29T13:06:59;25.10;99.90
5956;DHT22;3004;48.080;11.600;2022-07-29T13:09:38;25.00;99.90
5956;DHT22;3004;48.080;11.600;2022-07-29T13:12:08;25.00;99.90
5956;DHT22;3004;48.080;11.600;2022-07-29T13:14:40;25.00;99.90
5956;DHT22;3004;48.080;11.600;2022-07-29T13:17:11;24.90;99.90
5956;DHT22;3004;48.080;11.600;2022-07-29T13:19:41;24.80;99.90
5956;DHT22;3004;48.080;11.600;2022-07-29T13:22:09;24.70;99.90
5956;DHT22;3004;48.080;11.600;2022-07-29T13:24:46;24.60;99.90
5956;DHT22;3004;48.080;11.600;2022-07-29T13:27:14;24.60;99.90
5956;DHT22;3004;48.080;11.600;2022-07-29T13:29:41;24.40;99.90
5956;DHT22;3004;48.080;11.600;2022-07-29T13:32:08;24.40;99.90
5956;DHT22;3004;48.080;11.600;2022-07-29T13:34:39;24.30;99.90
5956;DHT22;3004;48.080;11.600;2022-07-29T13:37:06;24.30;99.90
5956;DHT22;3004;48.080;11.600;2022-07-29T13:39:33;24.30;99.90
5956;DHT22;3004;48.080;11.600;2022-07-29T13:42:02;24.20;99.90
5956;DHT22;3004;48.080;11.600;2022-07-29T13:44:29;24.10;99.90
5956;DHT22;3004;48.080;11.600;2022-07-29T13:46:56;24.00;99.90
5956;DHT22;3004;48.080;11.600;2022-07-29T13:49:26;24.00;99.90
5956;DHT22;3004;48.080;11.600;2022-07-29T13:51:54;23.90;99.90
5956;DHT22;3004;48.080;11.600;2022-07-29T13:54:21;23.90;99.90
5956;DHT22;3004;48.080;11.600;2022-07-29T13:56:50;23.90;99.90
5956;DHT22;3004;48.080;11.600;2022-07-29T13:59:18;24.00;99.90
5956;DHT22;3004;48.080;11.600;2022-07-29T14:01:45;24.00;99.90
5956;DHT22;3004;48.080;11.600;2022-07-29T14:04:14;24.10;99.90
5956;DHT22;3004;48.080;11.600;2022-07-29T14:06:41;24.10;99.90
5956;DHT22;3004;48.080;11.600;2022-07-29T14:09:09;24.10;99.90
5956;DHT22;3004;48.080;11.600;2022-07-29T14:11:36;24.10;99.90
5956;DHT22;3004;48.080;11.600;2022-07-29T14:14:04;24.10;99.90
5956;DHT22;3004;48.080;11.600;2022-07-29T14:16:31;24.20;99.90
5956;DHT22;3004;48.080;11.600;2022-07-29T14:18:58;24.20;99.90
5956;DHT22;3004;48.080;11.600;2022-07-29T14:21:25;24.20;99.90
5956;DHT22;3004;48.080;11.600;2022-07-29T14:23:52;24.20;99.90
5956;DHT22;3004;48.080;11.600;2022-07-29T14:26:21;24.30;99.90
5956;DHT22;3004;48.080;11.600;2022-07-29T14:28:49;24.30;99.90
5956;DHT22;3004;48.080;11.600;2022-07-29T14:31:16;24.30;99.90
5956;DHT22;3004;48.080;11.600;2022-07-29T14:33:43;24.30;99.90
5956;DHT22;3004;48.080;11.600;2022-07-29T14:36:10;24.20;99.90
5956;DHT22;3004;48.080;11.600;2022-07-29T14:38:41;24.20;99.90
5956;DHT22;3004;48.080;11.600;2022-07-29T14:41:10;24.20;99.90
5956;DHT22;3004;48.080;11.600;2022-07-29T14:43:39;24.10;99.90
5956;DHT22;3004;48.080;11.600;2022-07-29T14:46:06;24.20;99.90
5956;DHT22;3004;48.080;11.600;2022-07-29T14:48:33;24.30;99.90
5956;DHT22;3004;48.080;11.600;2022-07-29T14:51:00;24.30;99.90
5956;DHT22;3004;48.080;11.600;2022-07-29T14:53:30;24.20;99.90
5956;DHT22;3004;48.080;11.600;2022-07-29T14:55:59;24.20;99.90
5956;DHT22;3004;48.080;11.600;2022-07-29T14:58:26;24.20;99.90
5956;DHT22;3004;48.080;11.600;2022-07-29T15:00:54;24.20;99.90
5956;DHT22;3004;48.080;11.600;2022-07-29T15:03:24;24.20;99.90
5956;DHT22;3004;48.080;11.600;2022-07-29T15:05:51;24.10;99.90
5956;DHT22;3004;48.080;11.600;2022-07-29T15:08:18;24.00;99.90
5956;DHT22;3004;48.080;11.600;2022-07-29T15:10:47;24.00;99.90
5956;DHT22;3004;48.080;11.600;2022-07-29T15:13:14;24.00;99.90
5956;DHT22;3004;48.080;11.600;2022-07-29T15:15:43;24.10;99.90
5956;DHT22;3004;48.080;11.600;2022-07-29T15:18:12;24.10;99.90
5956;DHT22;3004;48.080;11.600;2022-07-29T15:20:39;24.10;99.90
5956;DHT22;3004;48.080;11.600;2022-07-29T15:23:06;24.10;99.90
5956;DHT22;3004;48.080;11.600;2022-07-29T15:25:35;24.00;99.90
5956;DHT22;3004;48.080;11.600;2022-07-29T15:28:05;24.00;99.90
5956;DHT22;3004;48.080;11.600;2022-07-29T15:30:34;24.00;99.90
5956;DHT22;3004;48.080;11.600;2022-07-29T15:33:06;24.00;99.90
5956;DHT22;3004;48.080;11.600;2022-07-29T15:35:35;23.90;99.90
5956;DHT22;3004;48.080;11.600;2022-07-29T15:38:05;23.80;99.90
5956;DHT22;3004;48.080;11.600;2022-07-29T15:40:32;23.80;99.90
5956;DHT22;3004;48.080;11.600;2022-07-29T15:43:01;23.70;99.90
5956;DHT22;3004;48.080;11.600;2022-07-29T15:45:35;23.70;99.90
5956;DHT22;3004;48.080;11.600;2022-07-29T15:48:06;23.70;99.90
5956;DHT22;3004;48.080;11.600;2022-07-29T15:50:35;23.70;99.90
5956;DHT22;3004;48.080;11.600;2022-07-29T15:53:05;23.60;99.90
5956;DHT22;3004;48.080;11.600;2022-07-29T15:55:34;23.60;99.90
5956;DHT22;3004;48.080;11.600;2022-07-29T15:58:04;23.60;99.90
5956;DHT22;3004;48.080;11.600;2022-07-29T16:00:34;23.50;99.90
5956;DHT22;3004;48.080;11.600;2022-07-29T16:03:01;23.50;99.90
5956;DHT22;3004;48.080;11.600;2022-07-29T16:05:28;23.40;99.90
5956;DHT22;3004;48.080;11.600;2022-07-29T16:07:57;23.30;99.90
5956;DHT22;3004;48.080;11.600;2022-07-29T16:10:25;23.20;99.90
5956;DHT22;3004;48.080;11.600;2022-07-29T16:12:52;23.10;99.90
5956;DHT22;3004;48.080;11.600;2022-07-29T16:15:19;23.00;99.90